Time;durP1;ratioP1;P1;durP2;ratioP2;P2;SDS_P1;SDS_P2;PMS_P1;PMS_P2;Temp;Humidity;BMP_temperature;BMP_pressure;BME280_temperature;BME280_humidity;BME280_pressure;Samples;Min_cycle;Max_cycle;Signal;HPM_P1;HPM_P2
2022/03/08 00:00:44;;;;;;;;;57.25;45.25;;;;;;;;5007942;28;8740;-67
2022/03/08 00:03:11;;;;;;;;;58.50;45.75;;;;;;;;5034105;28;8873;-67
2022/03/08 00:05:39;;;;;;;;;57.25;45.75;;;;;;;;5018473;28;9551;-67
2022/03/08 00:08:06;;;;;;;;;55.00;43.50;;;;;;;;5033823;28;8846;-67
2022/03/08 00:10:33;;;;;;;;;52.00;45.00;;;;;;;;5018102;28;8775;-67
2022/03/08 00:12:59;;;;;;;;;54.25;41.25;;;;;;;;5018858;28;8751;-67
2022/03/08 00:15:26;;;;;;;;;56.50;43.25;;;;;;;;5018200;28;9407;-67
2022/03/08 00:17:56;;;;;;;;;56.25;44.50;;;;;;;;5034013;28;8783;-67
2022/03/08 00:20:23;;;;;;;;;54.00;42.75;;;;;;;;5018318;28;8803;-67
2022/03/08 00:22:50;;;;;;;;;57.75;45.00;;;;;;;;5033662;28;8778;-67
2022/03/08 00:25:17;;;;;;;;;55.00;44.25;;;;;;;;5018967;28;8755;-67
2022/03/08 00:27:47;;;;;;;;;51.50;40.50;;;;;;;;5017902;28;8755;-67
2022/03/08 00:30:17;;;;;;;;;55.50;45.25;;;;;;;;5032542;28;8788;-68
2022/03/08 00:32:44;;;;;;;;;58.00;45.75;;;;;;;;5033441;28;8754;-68
2022/03/08 00:35:11;;;;;;;;;56.50;45.50;;;;;;;;5033493;28;8844;-68
2022/03/08 00:37:38;;;;;;;;;55.50;44.00;;;;;;;;5015662;28;8850;-67
2022/03/08 00:40:05;;;;;;;;;51.25;42.75;;;;;;;;5017918;28;9392;-68
2022/03/08 00:42:32;;;;;;;;;59.50;44.75;;;;;;;;5014750;28;9636;-67
2022/03/08 00:44:59;;;;;;;;;56.75;45.00;;;;;;;;5016899;28;8773;-67
2022/03/08 00:47:26;;;;;;;;;58.25;45.50;;;;;;;;5031889;28;8950;-67
2022/03/08 00:49:52;;;;;;;;;61.75;46.75;;;;;;;;5014168;28;9400;-68
2022/03/08 00:52:21;;;;;;;;;61.25;45.50;;;;;;;;5016743;28;8755;-66
2022/03/08 00:54:48;;;;;;;;;54.75;44.50;;;;;;;;5015023;28;8825;-65
2022/03/08 00:57:15;;;;;;;;;57.25;46.50;;;;;;;;5015874;28;8763;-67
2022/03/08 00:59:41;;;;;;;;;58.00;46.33;;;;;;;;5031543;28;8747;-67
2022/03/08 01:02:08;;;;;;;;;52.25;43.25;;;;;;;;5031825;28;8715;-66
2022/03/08 01:04:35;;;;;;;;;60.75;48.25;;;;;;;;5016230;28;8794;-66
2022/03/08 01:07:02;;;;;;;;;56.25;46.00;;;;;;;;5016538;28;8766;-67
2022/03/08 01:09:28;;;;;;;;;57.50;45.75;;;;;;;;5015017;28;8789;-66
2022/03/08 01:11:56;;;;;;;;;55.75;44.25;;;;;;;;5024419;28;8764;-67
2022/03/08 01:14:23;;;;;;;;;55.25;46.25;;;;;;;;4993975;28;8813;-67
2022/03/08 01:16:50;;;;;;;;;59.00;46.75;;;;;;;;4980092;28;9427;-73
2022/03/08 01:19:17;;;;;;;;;57.50;46.25;;;;;;;;4997784;28;8776;-70
2022/03/08 01:21:43;;;;;;;;;59.25;45.25;;;;;;;;4995937;28;8774;-71
2022/03/08 01:24:10;;;;;;;;;61.50;48.75;;;;;;;;4995875;28;8867;-72
2022/03/08 01:26:37;;;;;;;;;54.75;44.75;;;;;;;;5000669;28;8790;-70
2022/03/08 01:29:04;;;;;;;;;58.00;45.50;;;;;;;;5016871;28;8798;-72
2022/03/08 01:31:30;;;;;;;;;55.75;45.25;;;;;;;;5015714;28;8779;-72
2022/03/08 01:33:57;;;;;;;;;58.50;44.00;;;;;;;;5016701;28;8747;-72
2022/03/08 01:36:24;;;;;;;;;53.00;42.00;;;;;;;;5016531;28;8802;-73
2022/03/08 01:38:51;;;;;;;;;53.00;41.50;;;;;;;;5016629;28;8783;-72
2022/03/08 01:41:18;;;;;;;;;56.50;45.50;;;;;;;;5016379;28;8782;-70
2022/03/08 01:43:48;;;;;;;;;56.00;43.50;;;;;;;;5016952;28;8887;-68
2022/03/08 01:46:15;;;;;;;;;55.50;46.00;;;;;;;;5016191;28;8767;-71
2022/03/08 01:48:42;;;;;;;;;58.75;45.75;;;;;;;;5015489;28;8762;-70
2022/03/08 01:51:08;;;;;;;;;50.50;41.25;;;;;;;;5015221;28;8783;-70
2022/03/08 01:53:35;;;;;;;;;57.25;45.50;;;;;;;;5015714;28;8821;-72
2022/03/08 01:56:02;;;;;;;;;55.75;45.00;;;;;;;;5016453;28;8865;-68
2022/03/08 01:58:29;;;;;;;;;51.25;42.75;;;;;;;;5014558;28;8751;-66
2022/03/08 02:00:55;;;;;;;;;49.50;40.25;;;;;;;;5016813;28;8763;-68
2022/03/08 02:03:22;;;;;;;;;43.00;35.50;;;;;;;;5031229;28;8786;-67
2022/03/08 02:05:49;;;;;;;;;47.25;38.75;;;;;;;;5016527;28;8806;-66
2022/03/08 02:08:16;;;;;;;;;45.25;36.00;;;;;;;;5017656;28;8787;-71
2022/03/08 02:10:42;;;;;;;;;41.75;32.75;;;;;;;;5035689;28;8755;-67
2022/03/08 02:13:09;;;;;;;;;44.75;36.25;;;;;;;;5019581;28;8782;-68
2022/03/08 02:15:36;;;;;;;;;49.00;38.50;;;;;;;;5019759;28;8754;-67
2022/03/08 02:18:02;;;;;;;;;47.75;36.75;;;;;;;;5019131;28;8806;-68
2022/03/08 02:20:32;;;;;;;;;52.75;41.50;;;;;;;;5018678;28;8771;-68
2022/03/08 02:23:00;;;;;;;;;47.75;37.25;;;;;;;;5018642;28;8817;-68
2022/03/08 02:25:27;;;;;;;;;48.50;37.25;;;;;;;;5017406;28;8787;-68
2022/03/08 02:27:54;;;;;;;;;49.00;40.25;;;;;;;;5019903;28;8932;-67
2022/03/08 02:30:21;;;;;;;;;49.50;39.00;;;;;;;;5019023;28;8755;-65
2022/03/08 02:32:48;;;;;;;;;39.75;35.00;;;;;;;;5019407;28;9172;-65
2022/03/08 02:35:16;;;;;;;;;36.75;33.75;;;;;;;;5018694;28;8824;-66
2022/03/08 02:37:47;;;;;;;;;43.00;35.50;;;;;;;;5019631;28;8808;-65
2022/03/08 02:40:15;;;;;;;;;38.25;34.00;;;;;;;;5020086;28;8778;-65
2022/03/08 02:42:42;;;;;;;;;44.75;35.75;;;;;;;;5020420;28;8750;-65
2022/03/08 02:45:09;;;;;;;;;35.25;31.75;;;;;;;;4999850;28;8884;-66
2022/03/08 02:47:36;;;;;;;;;41.50;34.75;;;;;;;;4998722;28;8772;-65
2022/03/08 02:50:04;;;;;;;;;44.75;35.75;;;;;;;;4999322;28;8785;-65
2022/03/08 02:52:30;;;;;;;;;43.50;35.25;;;;;;;;4998038;28;8777;-66
2022/03/08 02:54:57;;;;;;;;;40.00;36.00;;;;;;;;4999242;28;8726;-66
2022/03/08 02:57:24;;;;;;;;;47.25;38.25;;;;;;;;5007754;28;8847;-66
2022/03/08 02:59:50;;;;;;;;;45.00;37.00;;;;;;;;5019078;28;8762;-67
2022/03/08 03:02:17;;;;;;;;;47.00;38.25;;;;;;;;5033816;28;8751;-67
2022/03/08 03:04:45;;;;;;;;;48.00;38.50;;;;;;;;5019711;28;8747;-66
2022/03/08 03:07:12;;;;;;;;;39.50;32.25;;;;;;;;5019424;28;8763;-66
2022/03/08 03:09:39;;;;;;;;;48.00;39.00;;;;;;;;5019199;28;8770;-66
2022/03/08 03:12:06;;;;;;;;;48.75;36.50;;;;;;;;5010166;28;8861;-66
2022/03/08 03:14:32;;;;;;;;;42.75;35.75;;;;;;;;5017648;28;8814;-65
2022/03/08 03:16:59;;;;;;;;;41.25;35.25;;;;;;;;5017689;28;8765;-66
2022/03/08 03:19:26;;;;;;;;;42.25;33.75;;;;;;;;5016702;28;8793;-67
2022/03/08 03:21:52;;;;;;;;;44.75;37.25;;;;;;;;5034783;28;8917;-66
2022/03/08 03:24:19;;;;;;;;;44.75;35.50;;;;;;;;5018770;28;8787;-68
2022/03/08 03:26:46;;;;;;;;;36.50;34.00;;;;;;;;5034450;28;8759;-65
2022/03/08 03:29:12;;;;;;;;;39.00;32.25;;;;;;;;5033712;28;8793;-67
2022/03/08 03:31:39;;;;;;;;;33.75;31.50;;;;;;;;5015796;28;9530;-65
2022/03/08 03:34:06;;;;;;;;;39.00;31.75;;;;;;;;5019306;28;8782;-64
2022/03/08 03:36:33;;;;;;;;;38.00;32.25;;;;;;;;5032917;28;8809;-66
2022/03/08 03:38:59;;;;;;;;;38.50;31.25;;;;;;;;5018535;28;8916;-65
2022/03/08 03:41:26;;;;;;;;;36.25;32.00;;;;;;;;5017226;28;8775;-67
2022/03/08 03:43:53;;;;;;;;;39.25;32.25;;;;;;;;5034321;28;8778;-66
2022/03/08 03:46:19;;;;;;;;;37.00;32.00;;;;;;;;5034522;28;8841;-66
2022/03/08 03:48:47;;;;;;;;;37.50;30.75;;;;;;;;5019855;28;8861;-66
2022/03/08 03:51:15;;;;;;;;;35.50;32.50;;;;;;;;5034354;28;8770;-68
2022/03/08 03:53:42;;;;;;;;;34.50;31.25;;;;;;;;5034835;28;8747;-66
2022/03/08 03:56:08;;;;;;;;;33.25;30.50;;;;;;;;5017511;28;8766;-66
2022/03/08 03:58:35;;;;;;;;;32.50;29.00;;;;;;;;5019091;28;8755;-66
2022/03/08 04:01:02;;;;;;;;;37.25;33.00;;;;;;;;5034671;28;9447;-66
2022/03/08 04:03:29;;;;;;;;;33.50;30.25;;;;;;;;5017628;28;8798;-66
2022/03/08 04:06:01;;;;;;;;;36.25;31.25;;;;;;;;5018039;28;9023;-68
2022/03/08 04:08:28;;;;;;;;;30.50;27.50;;;;;;;;5018027;28;8893;-67
2022/03/08 04:10:55;;;;;;;;;33.75;30.50;;;;;;;;5016460;28;8900;-66
2022/03/08 04:13:21;;;;;;;;;32.00;28.25;;;;;;;;5018107;28;8759;-68
2022/03/08 04:15:48;;;;;;;;;34.50;30.50;;;;;;;;5033192;28;9482;-67
2022/03/08 04:18:18;;;;;;;;;30.75;30.00;;;;;;;;5033365;28;8838;-67
2022/03/08 04:20:44;;;;;;;;;34.50;31.50;;;;;;;;5018206;28;8996;-67
2022/03/08 04:23:11;;;;;;;;;45.00;35.25;;;;;;;;5017754;28;8787;-65
2022/03/08 04:25:38;;;;;;;;;41.00;33.00;;;;;;;;5015067;28;8778;-65
2022/03/08 04:28:05;;;;;;;;;48.50;35.75;;;;;;;;5014545;28;8742;-65
2022/03/08 04:30:32;;;;;;;;;31.75;29.50;;;;;;;;5029702;28;8778;-65
2022/03/08 04:32:58;;;;;;;;;33.00;31.50;;;;;;;;5014812;28;8765;-67
2022/03/08 04:35:25;;;;;;;;;34.25;29.00;;;;;;;;5015001;28;8781;-66
2022/03/08 04:37:52;;;;;;;;;33.00;30.00;;;;;;;;5015164;28;9424;-66
2022/03/08 04:40:18;;;;;;;;;34.25;30.25;;;;;;;;5015755;28;8786;-65
2022/03/08 04:42:46;;;;;;;;;38.75;29.25;;;;;;;;4990165;28;8865;-68
2022/03/08 04:45:13;;;;;;;;;33.75;28.75;;;;;;;;4995904;28;8777;-70
2022/03/08 04:47:40;;;;;;;;;30.25;28.25;;;;;;;;4995466;28;8776;-69
2022/03/08 04:50:08;;;;;;;;;37.75;33.75;;;;;;;;4994131;28;8772;-66
2022/03/08 04:52:35;;;;;;;;;34.75;32.25;;;;;;;;4995280;28;8766;-68
2022/03/08 04:55:03;;;;;;;;;43.75;33.25;;;;;;;;4995980;28;8860;-68
2022/03/08 04:57:30;;;;;;;;;42.75;34.00;;;;;;;;5005417;28;8747;-71
2022/03/08 04:59:56;;;;;;;;;44.75;35.00;;;;;;;;5013624;28;8774;-69
2022/03/08 05:02:23;;;;;;;;;28.50;28.00;;;;;;;;5013046;28;8747;-68
2022/03/08 05:04:50;;;;;;;;;32.50;29.00;;;;;;;;5014824;28;8742;-68
2022/03/08 05:07:16;;;;;;;;;29.00;29.00;;;;;;;;5015205;28;8778;-69
2022/03/08 05:09:43;;;;;;;;;41.25;34.50;;;;;;;;5013936;28;9518;-69
2022/03/08 05:12:13;;;;;;;;;29.50;25.75;;;;;;;;5013448;28;9984;-69
2022/03/08 05:14:40;;;;;;;;;29.00;27.00;;;;;;;;5013531;28;8806;-68
2022/03/08 05:17:06;;;;;;;;;34.25;31.00;;;;;;;;5014448;28;9432;-68
2022/03/08 05:19:33;;;;;;;;;30.00;24.50;;;;;;;;5014665;28;11721;-66
2022/03/08 05:22:00;;;;;;;;;36.50;33.25;;;;;;;;5015199;28;8925;-67
2022/03/08 05:24:27;;;;;;;;;32.25;28.25;;;;;;;;5012174;28;8767;-66
2022/03/08 05:26:53;;;;;;;;;33.25;30.75;;;;;;;;5014231;28;8834;-70
2022/03/08 05:29:20;;;;;;;;;33.50;29.25;;;;;;;;5017047;28;8779;-67
2022/03/08 05:31:47;;;;;;;;;32.50;29.50;;;;;;;;5016209;28;8774;-68
2022/03/08 05:34:14;;;;;;;;;31.25;29.00;;;;;;;;5033171;28;9448;-67
2022/03/08 05:36:41;;;;;;;;;34.25;30.75;;;;;;;;5031918;28;9401;-67
2022/03/08 05:39:08;;;;;;;;;37.50;31.50;;;;;;;;5017409;28;8869;-67
2022/03/08 05:41:34;;;;;;;;;34.25;30.75;;;;;;;;5016095;28;9557;-68
2022/03/08 05:44:01;;;;;;;;;36.00;33.25;;;;;;;;5016345;28;8767;-66
2022/03/08 05:46:28;;;;;;;;;34.75;31.25;;;;;;;;5016443;28;8747;-67
2022/03/08 05:48:55;;;;;;;;;31.25;29.00;;;;;;;;5017468;28;8762;-67
2022/03/08 05:51:21;;;;;;;;;31.50;30.00;;;;;;;;5017673;28;8805;-68
2022/03/08 05:53:48;;;;;;;;;32.00;26.75;;;;;;;;5017591;28;8791;-66
2022/03/08 05:56:15;;;;;;;;;27.25;26.75;;;;;;;;5016585;28;9003;-67
2022/03/08 05:58:44;;;;;;;;;30.25;27.75;;;;;;;;5016705;28;8881;-66
2022/03/08 06:01:11;;;;;;;;;31.75;27.75;;;;;;;;5017769;28;8833;-67
2022/03/08 06:03:38;;;;;;;;;29.75;26.75;;;;;;;;5007506;28;9416;-70
2022/03/08 06:06:05;;;;;;;;;31.25;29.00;;;;;;;;5016395;28;8762;-66
2022/03/08 06:08:32;;;;;;;;;26.75;25.25;;;;;;;;5014369;28;8807;-66
2022/03/08 06:10:58;;;;;;;;;30.50;26.00;;;;;;;;5016441;28;8868;-66
2022/03/08 06:13:25;;;;;;;;;24.00;22.25;;;;;;;;5012854;28;8873;-65
2022/03/08 06:15:52;;;;;;;;;28.75;26.50;;;;;;;;5016662;28;8782;-66
2022/03/08 06:18:19;;;;;;;;;30.25;28.50;;;;;;;;5014232;28;8785;-66
2022/03/08 06:20:45;;;;;;;;;32.00;29.00;;;;;;;;5016785;28;8739;-67
2022/03/08 06:23:12;;;;;;;;;25.00;25.00;;;;;;;;5016521;28;8762;-67
2022/03/08 06:25:39;;;;;;;;;30.75;28.50;;;;;;;;5015199;28;8872;-66
2022/03/08 06:28:06;;;;;;;;;31.50;27.25;;;;;;;;5016443;28;8743;-66
2022/03/08 06:30:33;;;;;;;;;31.25;28.75;;;;;;;;5030953;28;8759;-67
2022/03/08 06:32:59;;;;;;;;;27.25;25.50;;;;;;;;5014516;28;8763;-67
2022/03/08 06:35:26;;;;;;;;;32.25;30.50;;;;;;;;5015052;28;9467;-67
2022/03/08 06:37:53;;;;;;;;;25.50;19.50;;;;;;;;5016399;28;8774;-66
2022/03/08 06:40:20;;;;;;;;;32.25;30.00;;;;;;;;5016205;28;8810;-65
2022/03/08 06:42:46;;;;;;;;;32.75;26.75;;;;;;;;5016271;28;8746;-66
2022/03/08 06:45:13;;;;;;;;;29.00;26.50;;;;;;;;5014919;28;8795;-66
2022/03/08 06:47:40;;;;;;;;;33.00;31.25;;;;;;;;5014796;28;8763;-67
2022/03/08 06:50:07;;;;;;;;;24.50;21.75;;;;;;;;5016428;28;8885;-66
2022/03/08 06:52:33;;;;;;;;;27.25;25.00;;;;;;;;5015908;28;8766;-67
2022/03/08 06:55:00;;;;;;;;;27.75;26.00;;;;;;;;5015594;28;8728;-67
2022/03/08 06:57:27;;;;;;;;;36.50;29.00;;;;;;;;5018759;28;8787;-67
2022/03/08 06:59:54;;;;;;;;;31.50;28.50;;;;;;;;5017101;28;8771;-67
2022/03/08 07:02:21;;;;;;;;;28.00;27.00;;;;;;;;5019272;28;8782;-68
2022/03/08 07:04:50;;;;;;;;;29.75;28.25;;;;;;;;5019162;28;8849;-72
2022/03/08 07:07:17;;;;;;;;;31.00;29.75;;;;;;;;5034792;28;9024;-72
2022/03/08 07:09:43;;;;;;;;;30.00;29.75;;;;;;;;5034046;28;8802;-74
2022/03/08 07:12:10;;;;;;;;;25.50;23.75;;;;;;;;5019716;28;8771;-70
2022/03/08 07:14:37;;;;;;;;;36.00;31.00;;;;;;;;5018019;28;8775;-69
2022/03/08 07:17:04;;;;;;;;;28.00;25.00;;;;;;;;5019261;28;8763;-64
2022/03/08 07:19:30;;;;;;;;;30.75;28.50;;;;;;;;5018701;28;8747;-65
2022/03/08 07:21:57;;;;;;;;;23.50;22.00;;;;;;;;5019839;28;8827;-68
2022/03/08 07:24:24;;;;;;;;;26.75;24.25;;;;;;;;5017284;28;8767;-67
2022/03/08 07:26:51;;;;;;;;;25.00;22.75;;;;;;;;5018677;28;8779;-66
2022/03/08 07:29:17;;;;;;;;;31.75;29.50;;;;;;;;5018993;28;8828;-67
2022/03/08 07:31:44;;;;;;;;;28.00;26.00;;;;;;;;5017785;28;8729;-66
2022/03/08 07:34:11;;;;;;;;;25.00;25.00;;;;;;;;5017324;28;8762;-65
2022/03/08 07:36:38;;;;;;;;;23.75;22.50;;;;;;;;5018278;28;8747;-66
2022/03/08 07:39:05;;;;;;;;;30.75;29.25;;;;;;;;5018939;28;8766;-66
2022/03/08 07:41:32;;;;;;;;;28.00;26.25;;;;;;;;5018267;28;8787;-66
2022/03/08 07:44:01;;;;;;;;;29.00;27.50;;;;;;;;5018546;28;9454;-66
2022/03/08 07:46:27;;;;;;;;;32.75;29.50;;;;;;;;5017885;28;9032;-66
2022/03/08 07:48:54;;;;;;;;;26.50;26.25;;;;;;;;5018817;28;8786;-69
2022/03/08 07:51:21;;;;;;;;;31.00;27.25;;;;;;;;5018252;28;8751;-68
2022/03/08 07:53:47;;;;;;;;;26.50;25.75;;;;;;;;5018733;28;9436;-70
2022/03/08 07:56:14;;;;;;;;;31.00;27.00;;;;;;;;5016330;28;8810;-69
2022/03/08 07:58:41;;;;;;;;;32.50;27.50;;;;;;;;5017870;28;8852;-67
2022/03/08 08:01:08;;;;;;;;;26.50;25.75;;;;;;;;5034145;28;8747;-68
2022/03/08 08:03:35;;;;;;;;;26.50;24.75;;;;;;;;5016871;28;8766;-73
2022/03/08 08:06:02;;;;;;;;;29.25;24.75;;;;;;;;5015933;28;8857;-69
2022/03/08 08:08:29;;;;;;;;;29.00;28.00;;;;;;;;5016847;28;8910;-67
2022/03/08 08:10:56;;;;;;;;;26.50;25.75;;;;;;;;5018280;28;8787;-72
2022/03/08 08:13:22;;;;;;;;;26.00;23.50;;;;;;;;5018324;28;8762;-69
2022/03/08 08:15:49;;;;;;;;;28.50;25.50;;;;;;;;5016839;28;9392;-71
2022/03/08 08:18:16;;;;;;;;;25.50;22.50;;;;;;;;5006503;28;8751;-84
2022/03/08 08:20:42;;;;;;;;;32.25;27.50;;;;;;;;5016572;28;8755;-65
2022/03/08 08:23:09;;;;;;;;;31.00;29.00;;;;;;;;5018086;28;8793;-64
2022/03/08 08:25:36;;;;;;;;;22.75;22.75;;;;;;;;5032739;28;8833;-66
2022/03/08 08:28:03;;;;;;;;;28.25;27.00;;;;;;;;5018694;28;8712;-67
2022/03/08 08:30:29;;;;;;;;;25.00;24.75;;;;;;;;5016046;28;8766;-66
2022/03/08 08:32:56;;;;;;;;;31.25;27.75;;;;;;;;5017391;28;8763;-67
2022/03/08 08:35:23;;;;;;;;;27.75;24.00;;;;;;;;5016796;28;9376;-66
2022/03/08 08:37:49;;;;;;;;;25.75;22.50;;;;;;;;5017642;28;8786;-66
2022/03/08 08:40:16;;;;;;;;;21.75;21.50;;;;;;;;5017852;28;8743;-66
2022/03/08 08:42:43;;;;;;;;;24.75;23.75;;;;;;;;5017367;28;8770;-66
2022/03/08 08:45:10;;;;;;;;;25.00;23.25;;;;;;;;5016569;28;8766;-66
2022/03/08 08:47:37;;;;;;;;;23.00;21.50;;;;;;;;5032444;28;8791;-66
2022/03/08 08:50:04;;;;;;;;;27.00;27.00;;;;;;;;5017965;28;8840;-67
2022/03/08 08:52:30;;;;;;;;;25.75;23.25;;;;;;;;5017769;28;8775;-67
2022/03/08 08:54:57;;;;;;;;;14.75;12.50;;;;;;;;5033586;28;8747;-66
2022/03/08 08:57:24;;;;;;;;;27.25;25.50;;;;;;;;5015409;28;8795;-66
2022/03/08 08:59:51;;;;;;;;;24.50;22.00;;;;;;;;5017782;28;8786;-67
2022/03/08 09:02:17;;;;;;;;;19.00;16.25;;;;;;;;5032990;28;8787;-66
2022/03/08 09:04:44;;;;;;;;;27.75;25.75;;;;;;;;5017696;28;8805;-66
2022/03/08 09:07:11;;;;;;;;;23.50;21.25;;;;;;;;5018142;28;8772;-66
2022/03/08 09:09:37;;;;;;;;;27.25;25.50;;;;;;;;5017463;28;8853;-67
2022/03/08 09:12:04;;;;;;;;;25.00;22.50;;;;;;;;5017278;28;8787;-66
2022/03/08 09:14:31;;;;;;;;;21.75;21.50;;;;;;;;5015513;28;8775;-66
2022/03/08 09:16:58;;;;;;;;;26.25;23.25;;;;;;;;5017217;28;8890;-64
2022/03/08 09:19:27;;;;;;;;;30.50;23.25;;;;;;;;5016586;28;8747;-65
2022/03/08 09:21:54;;;;;;;;;22.00;22.00;;;;;;;;5017716;28;8759;-64
2022/03/08 09:24:21;;;;;;;;;25.75;22.00;;;;;;;;5017146;28;8782;-65
2022/03/08 09:26:47;;;;;;;;;30.75;28.00;;;;;;;;5017058;28;9955;-64
2022/03/08 09:29:14;;;;;;;;;25.25;21.75;;;;;;;;5017409;28;10334;-64
2022/03/08 09:31:41;;;;;;;;;28.00;27.75;;;;;;;;5016956;28;8763;-64
2022/03/08 09:34:07;;;;;;;;;29.50;26.00;;;;;;;;5017584;28;8769;-64
2022/03/08 09:36:34;;;;;;;;;26.00;24.50;;;;;;;;5016003;28;8868;-65
2022/03/08 09:39:01;;;;;;;;;29.00;27.25;;;;;;;;5016082;28;9059;-64
2022/03/08 09:41:28;;;;;;;;;27.00;24.75;;;;;;;;5016711;28;8801;-64
2022/03/08 09:43:54;;;;;;;;;28.00;25.00;;;;;;;;5017082;28;8771;-65
2022/03/08 09:46:21;;;;;;;;;25.25;21.50;;;;;;;;5017248;28;8743;-64
2022/03/08 09:48:48;;;;;;;;;20.25;20.25;;;;;;;;5016903;28;8773;-64
2022/03/08 09:51:16;;;;;;;;;18.00;15.00;;;;;;;;5015834;28;8787;-64
2022/03/08 09:53:44;;;;;;;;;26.50;24.50;;;;;;;;5015553;28;8771;-65
2022/03/08 09:56:10;;;;;;;;;26.50;23.50;;;;;;;;5016706;28;8787;-65
2022/03/08 09:58:40;;;;;;;;;28.25;21.75;;;;;;;;5016691;28;8789;-65
2022/03/08 10:01:07;;;;;;;;;18.75;15.75;;;;;;;;5017264;28;8832;-65
2022/03/08 10:03:35;;;;;;;;;27.00;24.50;;;;;;;;5016426;28;8766;-64
2022/03/08 10:06:03;;;;;;;;;25.00;23.75;;;;;;;;5016847;28;8845;-65
2022/03/08 10:08:30;;;;;;;;;23.25;22.00;;;;;;;;5017366;28;8731;-64
2022/03/08 10:11:01;;;;;;;;;22.25;20.75;;;;;;;;5016009;28;8778;-65
2022/03/08 10:13:30;;;;;;;;;24.75;24.50;;;;;;;;4997552;28;8752;-65
2022/03/08 10:16:15;;;;;;;;;22.00;21.50;;;;;;;;4996882;28;8750;-64
2022/03/08 10:18:42;;;;;;;;;22.50;21.75;;;;;;;;4997195;28;8738;-64
2022/03/08 10:21:27;;;;;;;;;21.50;21.50;;;;;;;;4997606;28;8730;-65
2022/03/08 10:23:53;;;;;;;;;24.25;24.25;;;;;;;;4996073;28;8793;-65
2022/03/08 10:26:20;;;;;;;;;28.75;22.25;;;;;;;;4998095;28;8746;-65
2022/03/08 10:28:48;;;;;;;;;24.50;22.25;;;;;;;;5016881;28;8846;-65
2022/03/08 10:31:15;;;;;;;;;27.00;25.00;;;;;;;;5021237;28;8783;-64
2022/03/08 10:33:42;;;;;;;;;22.00;20.75;;;;;;;;5020051;28;8743;-64
2022/03/08 10:36:20;;;;;;;;;24.75;23.50;;;;;;;;5020726;28;8735;-65
2022/03/08 10:39:05;;;;;;;;;26.50;24.25;;;;;;;;5020373;28;8758;-64
2022/03/08 10:41:32;;;;;;;;;27.50;24.00;;;;;;;;5018615;28;8806;-65
2022/03/08 10:43:59;;;;;;;;;20.50;18.50;;;;;;;;5020345;28;8759;-65
2022/03/08 10:46:26;;;;;;;;;27.25;26.00;;;;;;;;5020143;28;8731;-65
2022/03/08 10:48:56;;;;;;;;;24.00;24.00;;;;;;;;5020711;28;8795;-65
2022/03/08 10:51:23;;;;;;;;;28.00;26.50;;;;;;;;5009203;28;8776;-64
2022/03/08 10:53:49;;;;;;;;;25.00;22.00;;;;;;;;5019712;28;8759;-65
2022/03/08 10:56:25;;;;;;;;;26.50;25.50;;;;;;;;5018523;28;8794;-65
2022/03/08 10:58:52;;;;;;;;;25.00;24.25;;;;;;;;5020089;28;8759;-64
2022/03/08 11:01:19;;;;;;;;;27.25;24.75;;;;;;;;5020282;28;8905;-64
2022/03/08 11:03:56;;;;;;;;;28.50;26.75;;;;;;;;5020035;28;8751;-65
2022/03/08 11:06:23;;;;;;;;;34.50;28.00;;;;;;;;5034694;28;8775;-64
2022/03/08 11:08:50;;;;;;;;;32.25;29.00;;;;;;;;5019964;28;8755;-65
2022/03/08 11:11:16;;;;;;;;;26.25;23.75;;;;;;;;5019837;28;8816;-65
2022/03/08 11:13:43;;;;;;;;;33.25;29.50;;;;;;;;5019748;28;8751;-65
2022/03/08 11:16:10;;;;;;;;;38.25;31.00;;;;;;;;5020452;28;8739;-65
2022/03/08 11:18:37;;;;;;;;;32.50;27.75;;;;;;;;5034282;28;8809;-65
2022/03/08 11:21:03;;;;;;;;;30.50;29.50;;;;;;;;5034838;28;8750;-65
2022/03/08 11:23:30;;;;;;;;;32.75;29.00;;;;;;;;5019589;28;8785;-64
2022/03/08 11:25:57;;;;;;;;;31.50;30.00;;;;;;;;5009765;28;8783;-64
2022/03/08 11:28:24;;;;;;;;;32.50;30.25;;;;;;;;5000065;28;8740;-64
2022/03/08 11:30:55;;;;;;;;;27.00;22.50;;;;;;;;4999558;28;8844;-65
2022/03/08 11:33:25;;;;;;;;;30.50;29.75;;;;;;;;4998573;28;8754;-65
2022/03/08 11:35:58;;;;;;;;;33.50;30.75;;;;;;;;5000134;28;8729;-64
2022/03/08 11:38:25;;;;;;;;;33.50;31.75;;;;;;;;4999542;28;9458;-64
2022/03/08 11:40:53;;;;;;;;;27.50;23.25;;;;;;;;4999768;28;8761;-65
2022/03/08 11:43:20;;;;;;;;;30.50;29.50;;;;;;;;5018882;28;8758;-65
2022/03/08 11:45:50;;;;;;;;;34.75;30.00;;;;;;;;5020172;28;8741;-65
2022/03/08 11:48:20;;;;;;;;;33.75;28.75;;;;;;;;5019614;28;9886;-65
2022/03/08 11:50:48;;;;;;;;;28.25;27.25;;;;;;;;5019342;28;8747;-65
2022/03/08 11:53:15;;;;;;;;;32.00;30.25;;;;;;;;5017964;28;8770;-65
2022/03/08 11:55:50;;;;;;;;;30.00;25.75;;;;;;;;5018647;28;8766;-65
2022/03/08 11:58:19;;;;;;;;;33.75;30.75;;;;;;;;5019171;28;8762;-65
2022/03/08 12:00:50;;;;;;;;;40.50;32.75;;;;;;;;5017400;28;8751;-65
2022/03/08 12:03:18;;;;;;;;;33.75;30.50;;;;;;;;5033826;28;8834;-65
2022/03/08 12:05:51;;;;;;;;;42.00;33.00;;;;;;;;5033998;28;8751;-65
2022/03/08 12:08:27;;;;;;;;;33.00;31.25;;;;;;;;5018841;28;8743;-65
2022/03/08 12:10:58;;;;;;;;;42.00;33.50;;;;;;;;5017147;28;8801;-65
2022/03/08 12:13:28;;;;;;;;;40.50;32.75;;;;;;;;5018175;28;8737;-65
2022/03/08 12:16:10;;;;;;;;;43.00;35.25;;;;;;;;5017739;28;8747;-65
2022/03/08 12:18:38;;;;;;;;;36.00;31.75;;;;;;;;5018235;28;8766;-65
2022/03/08 12:21:17;;;;;;;;;43.25;35.00;;;;;;;;5007662;28;8847;-65
2022/03/08 12:24:01;;;;;;;;;46.25;37.50;;;;;;;;5016391;28;8735;-65
2022/03/08 12:26:30;;;;;;;;;39.50;35.25;;;;;;;;5018294;28;8787;-65
2022/03/08 12:29:06;;;;;;;;;41.75;35.00;;;;;;;;5012598;28;9545;-65
2022/03/08 12:31:33;;;;;;;;;48.75;36.25;;;;;;;;5027781;28;8739;-65
2022/03/08 12:34:03;;;;;;;;;43.75;35.75;;;;;;;;5018813;28;8767;-65
2022/03/08 12:36:30;;;;;;;;;42.00;34.00;;;;;;;;5018075;28;8857;-65
2022/03/08 12:38:56;;;;;;;;;41.00;33.25;;;;;;;;5017996;28;8820;-65
2022/03/08 12:41:26;;;;;;;;;35.25;31.50;;;;;;;;5032722;28;8802;-65
2022/03/08 12:43:59;;;;;;;;;33.75;30.25;;;;;;;;5018195;28;9257;-65
2022/03/08 12:46:27;;;;;;;;;40.75;34.00;;;;;;;;5017780;28;9403;-65
2022/03/08 12:48:53;;;;;;;;;39.25;34.75;;;;;;;;5018481;28;8772;-65
2022/03/08 12:51:23;;;;;;;;;45.25;37.00;;;;;;;;5017551;28;8778;-65
2022/03/08 12:53:59;;;;;;;;;44.75;37.00;;;;;;;;5031954;28;8816;-65
2022/03/08 12:56:27;;;;;;;;;53.00;42.25;;;;;;;;5032493;28;8792;-65
2022/03/08 12:59:03;;;;;;;;;50.75;38.75;;;;;;;;5018016;28;8779;-65
2022/03/08 13:01:29;;;;;;;;;48.67;40.67;;;;;;;;5017415;28;9474;-65
2022/03/08 13:03:56;;;;;;;;;41.00;36.00;;;;;;;;5018140;28;8786;-65
2022/03/08 13:06:23;;;;;;;;;44.50;34.00;;;;;;;;5032313;28;8747;-65
2022/03/08 13:08:49;;;;;;;;;49.25;40.25;;;;;;;;5017771;28;9000;-65
2022/03/08 13:11:18;;;;;;;;;50.00;40.00;;;;;;;;5017313;28;8775;-65
2022/03/08 13:13:45;;;;;;;;;44.75;35.00;;;;;;;;5017095;28;8808;-65
2022/03/08 13:16:11;;;;;;;;;44.50;38.25;;;;;;;;5018086;28;8751;-65
2022/03/08 13:18:38;;;;;;;;;45.00;37.00;;;;;;;;5015904;28;8790;-65
2022/03/08 13:21:06;;;;;;;;;41.25;35.00;;;;;;;;5032604;28;8751;-64
2022/03/08 13:23:37;;;;;;;;;45.00;37.75;;;;;;;;5016999;28;8743;-65
2022/03/08 13:26:04;;;;;;;;;46.00;37.75;;;;;;;;5017413;28;8759;-65
2022/03/08 13:28:31;;;;;;;;;44.75;36.25;;;;;;;;5017262;28;8786;-65
2022/03/08 13:31:01;;;;;;;;;47.00;39.75;;;;;;;;5016602;28;8775;-65
2022/03/08 13:33:34;;;;;;;;;49.50;40.75;;;;;;;;5031903;28;9412;-65
2022/03/08 13:36:01;;;;;;;;;46.25;38.75;;;;;;;;5017032;28;8865;-64
2022/03/08 13:38:35;;;;;;;;;45.50;37.50;;;;;;;;5017064;28;8735;-65
2022/03/08 13:41:03;;;;;;;;;47.75;39.25;;;;;;;;5017272;28;8766;-65
2022/03/08 13:43:30;;;;;;;;;49.25;39.75;;;;;;;;4997407;28;8737;-65
2022/03/08 13:45:56;;;;;;;;;46.75;39.00;;;;;;;;4997836;28;8761;-65
2022/03/08 13:48:27;;;;;;;;;52.75;41.50;;;;;;;;4997257;28;8807;-65
2022/03/08 13:50:54;;;;;;;;;49.00;40.75;;;;;;;;4997187;28;8816;-65
2022/03/08 13:53:22;;;;;;;;;46.75;39.00;;;;;;;;4995432;28;8757;-65
2022/03/08 13:55:48;;;;;;;;;50.75;41.25;;;;;;;;4997468;28;8769;-65
2022/03/08 13:58:16;;;;;;;;;49.00;40.00;;;;;;;;5003832;28;8788;-65
2022/03/08 14:00:43;;;;;;;;;47.50;38.75;;;;;;;;5015886;28;8819;-65
2022/03/08 14:03:16;;;;;;;;;47.75;39.75;;;;;;;;5031943;28;8938;-65
2022/03/08 14:05:52;;;;;;;;;49.00;40.75;;;;;;;;5016420;28;8818;-65
2022/03/08 14:08:58;;;;;;;;;50.50;38.75;;;;;;;;5016835;28;8727;-65
2022/03/08 14:11:25;;;;;;;;;49.75;39.50;;;;;;;;4975541;28;8780;-65
2022/03/08 14:13:55;;;;;;;;;47.50;38.00;;;;;;;;4959514;28;8854;-65
2022/03/08 14:16:24;;;;;;;;;51.75;41.25;;;;;;;;4976085;28;8744;-64
2022/03/08 14:18:54;;;;;;;;;52.50;40.25;;;;;;;;4975960;28;8861;-65
2022/03/08 14:21:47;;;;;;;;;50.50;40.75;;;;;;;;4959262;28;8795;-65
2022/03/08 14:24:16;;;;;;;;;46.25;37.50;;;;;;;;4973582;28;8790;-65
2022/03/08 14:26:59;;;;;;;;;50.50;41.75;;;;;;;;4975586;28;8756;-65
2022/03/08 14:29:26;;;;;;;;;50.25;39.00;;;;;;;;4974883;28;8767;-65
2022/03/08 14:31:52;;;;;;;;;51.00;41.25;;;;;;;;4975394;28;8808;-65
2022/03/08 14:34:20;;;;;;;;;49.00;40.25;;;;;;;;4975513;28;8813;-65